Time;durP1;ratioP1;P1;durP2;ratioP2;P2;SDS_P1;SDS_P2;PMS_P1;PMS_P2;Temp;Humidity;BMP_temperature;BMP_pressure;BME280_temperature;BME280_humidity;BME280_pressure;Samples;Min_cycle;Max_cycle;Signal;HPM_P1;HPM_P2
2021/07/13 00:00:16;;;;;;;413.02;29.25;;;23.50;78.20;;;;;;4982272;28;20575;-60
2021/07/13 00:02:42;;;;;;;431.65;28.17;;;23.40;78.60;;;;;;4983192;28;20030;-60
2021/07/13 00:05:12;;;;;;;418.88;27.08;;;23.40;78.90;;;;;;4981058;28;20038;-60
2021/07/13 00:07:38;;;;;;;438.05;28.63;;;23.40;79.00;;;;;;4981361;28;20102;-60
2021/07/13 00:10:06;;;;;;;397.67;26.85;;;23.30;79.10;;;;;;4979495;28;20149;-60
2021/07/13 00:12:31;;;;;;;373.80;24.20;;;23.30;79.10;;;;;;4981875;28;20092;-59
2021/07/13 00:14:57;;;;;;;301.90;23.25;;;23.30;79.30;;;;;;4956710;28;20086;-60
2021/07/13 00:17:23;;;;;;;297.85;24.13;;;23.30;79.40;;;;;;4981718;28;20037;-60
2021/07/13 00:19:48;;;;;;;359.20;21.58;;;23.30;79.40;;;;;;4964518;28;20152;-60
2021/07/13 00:22:14;;;;;;;289.00;20.42;;;23.20;79.60;;;;;;4980751;28;20109;-59
2021/07/13 00:24:39;;;;;;;275.88;18.40;;;23.20;79.60;;;;;;4983517;28;20053;-59
2021/07/13 00:27:05;;;;;;;285.35;18.13;;;23.20;79.80;;;;;;4981455;28;20377;-60
2021/07/13 00:29:30;;;;;;;209.50;16.85;;;23.10;79.90;;;;;;4981852;28;20049;-60
2021/07/13 00:31:56;;;;;;;235.38;17.80;;;23.10;80.00;;;;;;4982828;28;20053;-59
2021/07/13 00:34:21;;;;;;;164.38;15.20;;;23.10;80.00;;;;;;4982210;28;20046;-60
2021/07/13 00:36:47;;;;;;;191.02;14.73;;;23.10;80.10;;;;;;4981615;28;20042;-59
2021/07/13 00:39:12;;;;;;;203.52;14.73;;;23.10;80.20;;;;;;4981409;28;20168;-60
2021/07/13 00:41:38;;;;;;;189.95;13.73;;;23.10;80.30;;;;;;4982130;28;20039;-60
2021/07/13 00:44:04;;;;;;;166.50;12.85;;;23.10;80.30;;;;;;4981300;28;20739;-59
2021/07/13 00:46:29;;;;;;;188.73;13.10;;;23.10;80.40;;;;;;4982001;28;20168;-60
2021/07/13 00:48:55;;;;;;;152.55;13.00;;;23.10;80.50;;;;;;4980052;28;20129;-60
2021/07/13 00:51:20;;;;;;;154.60;12.75;;;23.00;80.70;;;;;;4980654;28;20178;-60
2021/07/13 00:53:46;;;;;;;148.90;12.82;;;23.00;80.80;;;;;;4999098;28;20128;-60
2021/07/13 00:56:11;;;;;;;123.40;10.63;;;23.00;80.90;;;;;;4986072;28;20130;-60
2021/07/13 00:58:37;;;;;;;136.95;10.60;;;23.00;81.00;;;;;;4985872;28;20089;-60
2021/07/13 01:01:04;;;;;;;145.55;10.07;;;22.90;81.00;;;;;;4984204;28;20499;-59
2021/07/13 01:03:29;;;;;;;114.80;9.82;;;22.80;81.10;;;;;;4968713;28;20064;-60
2021/07/13 01:05:55;;;;;;;94.00;9.13;;;22.90;81.30;;;;;;4985299;28;20034;-60
2021/07/13 01:08:30;;;;;;;101.43;8.70;;;22.90;81.50;;;;;;4984176;28;20030;-60
2021/07/13 01:11:37;;;;;;;99.53;9.27;;;22.90;81.50;;;;;;4985362;28;20026;-60
2021/07/13 01:14:06;;;;;;;;;;;22.90;81.50;;;;;;4906585;29;20044;-60
2021/07/13 01:16:54;;;;;;;73.93;7.43;;;22.80;81.60;;;;;;4907271;29;19907;-59
2021/07/13 01:19:48;;;;;;;60.95;6.28;;;22.80;81.50;;;;;;4956026;28;20124;-60
2021/07/13 01:22:15;;;;;;;59.15;7.93;;;22.90;81.80;;;;;;4981395;28;20038;-60
2021/07/13 01:25:29;;;;;;;57.38;5.70;;;22.80;81.80;;;;;;4985792;28;20121;-59
2021/07/13 01:28:03;;;;;;;50.55;6.07;;;22.80;81.80;;;;;;4975802;28;20046;-60
2021/07/13 01:30:33;;;;;;;65.85;5.95;;;22.80;81.80;;;;;;4978764;28;20041;-60
2021/07/13 01:33:15;;;;;;;69.25;7.13;;;22.80;81.80;;;;;;4985136;28;20092;-59
2021/07/13 01:36:03;;;;;;;51.30;5.93;;;22.70;82.00;;;;;;4982937;28;20042;-60
2021/07/13 01:38:30;;;;;;;62.45;7.45;;;22.70;82.00;;;;;;4984326;28;20511;-60
2021/07/13 01:41:10;;;;;;;56.58;7.35;;;22.70;82.00;;;;;;4983375;28;20038;-60
2021/07/13 01:43:40;;;;;;;32.13;6.47;;;22.70;82.10;;;;;;4969420;28;20030;-60
2021/07/13 01:46:07;;;;;;;38.08;5.55;;;22.70;82.20;;;;;;4984049;28;20508;-60
2021/07/13 01:48:32;;;;;;;46.70;5.85;;;22.70;82.30;;;;;;4983480;28;20034;-60
2021/07/13 01:50:58;;;;;;;52.80;6.22;;;22.60;82.30;;;;;;4968289;28;20041;-60
2021/07/13 01:53:24;;;;;;;41.00;6.20;;;22.60;82.40;;;;;;4982364;28;20095;-60
2021/07/13 01:55:49;;;;;;;28.92;4.63;;;22.60;82.40;;;;;;4952294;28;20378;-60
2021/07/13 01:58:16;;;;;;;29.80;4.82;;;22.60;82.60;;;;;;4984223;28;20050;-60
2021/07/13 02:00:42;;;;;;;40.67;5.60;;;22.60;82.70;;;;;;4984283;28;20085;-59
2021/07/13 02:03:07;;;;;;;25.00;4.63;;;22.50;82.70;;;;;;4983353;28;20026;-60
2021/07/13 02:05:33;;;;;;;38.35;5.00;;;22.60;82.80;;;;;;4983203;28;20394;-60
2021/07/13 02:08:02;;;;;;;41.75;3.70;;;22.50;82.80;;;;;;4978208;28;20494;-60
2021/07/13 02:10:27;;;;;;;21.80;3.83;;;22.60;82.90;;;;;;4983857;28;20550;-60
2021/07/13 02:12:52;;;;;;;25.00;3.80;;;22.50;82.90;;;;;;4967437;28;20113;-60
2021/07/13 02:15:18;;;;;;;18.52;3.85;;;22.50;83.10;;;;;;4985795;28;20042;-61
2021/07/13 02:17:49;;;;;;;19.23;3.13;;;22.50;83.20;;;;;;4982372;28;20072;-60
2021/07/13 02:20:15;;;;;;;15.77;3.10;;;22.50;83.20;;;;;;4982764;28;20037;-59
2021/07/13 02:22:41;;;;;;;17.75;3.20;;;22.50;83.20;;;;;;4985159;28;20018;-60
2021/07/13 02:25:07;;;;;;;18.08;3.65;;;22.50;83.20;;;;;;4984015;28;20394;-60
2021/07/13 02:27:32;;;;;;;14.82;3.30;;;22.50;83.20;;;;;;4982291;28;20121;-60
2021/07/13 02:29:59;;;;;;;19.23;2.90;;;22.50;83.30;;;;;;4982035;28;20114;-60
2021/07/13 02:32:30;;;;;;;15.43;2.88;;;22.40;83.20;;;;;;4981488;28;20101;-59
2021/07/13 02:34:55;;;;;;;14.63;3.00;;;22.40;83.40;;;;;;4983442;28;20355;-59
2021/07/13 02:37:22;;;;;;;11.20;3.00;;;22.40;83.40;;;;;;4965778;28;20056;-60
2021/07/13 02:39:47;;;;;;;23.73;3.22;;;22.40;83.60;;;;;;4983065;28;20095;-60
2021/07/13 02:42:13;;;;;;;11.63;2.67;;;22.40;83.50;;;;;;4983118;28;20034;-60
2021/07/13 02:44:38;;;;;;;16.58;2.67;;;22.40;83.70;;;;;;4978093;28;20367;-60
2021/07/13 02:47:08;;;;;;;11.35;2.55;;;22.40;83.80;;;;;;4981745;28;20035;-60
2021/07/13 02:49:37;;;;;;;8.60;2.58;;;22.40;83.80;;;;;;4983692;28;20042;-59
2021/07/13 02:52:02;;;;;;;9.98;2.42;;;22.40;83.90;;;;;;4982732;28;20056;-60
2021/07/13 02:54:28;;;;;;;18.98;2.42;;;22.40;84.00;;;;;;4966563;28;20054;-60
2021/07/13 02:56:59;;;;;;;11.15;2.33;;;22.30;83.90;;;;;;4966312;28;20026;-60
2021/07/13 02:59:25;;;;;;;12.45;2.67;;;22.30;83.90;;;;;;4966005;28;20041;-59
2021/07/13 03:01:51;;;;;;;7.68;2.63;;;22.30;84.00;;;;;;4982488;28;20031;-60
2021/07/13 03:04:17;;;;;;;8.48;1.90;;;22.30;84.00;;;;;;4982809;28;20120;-59
2021/07/13 03:06:42;;;;;;;23.08;2.33;;;22.30;84.10;;;;;;4965849;28;20080;-59
2021/07/13 03:09:08;;;;;;;10.63;2.35;;;22.30;84.20;;;;;;4964884;28;20034;-59
2021/07/13 03:11:34;;;;;;;5.55;1.75;;;22.20;84.10;;;;;;4981204;28;20069;-60
2021/07/13 03:14:03;;;;;;;10.85;2.00;;;22.30;84.30;;;;;;4981807;28;20050;-59
2021/07/13 03:16:32;;;;;;;5.72;1.80;;;22.20;84.30;;;;;;4966549;28;20026;-59
2021/07/13 03:18:58;;;;;;;6.50;2.00;;;22.20;84.30;;;;;;4961779;28;20113;-60
2021/07/13 03:21:25;;;;;;;8.65;2.15;;;22.20;84.30;;;;;;4981185;28;20041;-59
2021/07/13 03:23:50;;;;;;;6.88;1.90;;;22.20;84.30;;;;;;4978998;28;20057;-60
2021/07/13 03:26:16;;;;;;;6.95;2.40;;;22.20;84.30;;;;;;4981841;28;20075;-59
2021/07/13 03:28:41;;;;;;;7.10;2.30;;;22.20;84.30;;;;;;4981649;28;20038;-60
2021/07/13 03:31:08;;;;;;;5.38;2.35;;;22.20;84.40;;;;;;4966011;28;20026;-60
2021/07/13 03:33:33;;;;;;;8.35;2.80;;;22.10;85.20;;;;;;4982552;28;20553;-59
2021/07/13 03:35:59;;;;;;;7.93;2.65;;;22.20;84.70;;;;;;4966069;28;20031;-59
2021/07/13 03:38:24;;;;;;;12.80;2.30;;;22.10;84.60;;;;;;4979564;28;20035;-59
2021/07/13 03:40:50;;;;;;;9.43;2.85;;;22.10;84.80;;;;;;4981903;28;20097;-60
2021/07/13 03:43:15;;;;;;;9.85;2.55;;;22.10;84.90;;;;;;4981402;28;20084;-59
2021/07/13 03:45:41;;;;;;;7.03;2.45;;;22.10;85.00;;;;;;4981802;28;20019;-59
2021/07/13 03:48:07;;;;;;;5.32;2.00;;;22.10;85.20;;;;;;4981853;28;20042;-59
2021/07/13 03:50:33;;;;;;;5.57;2.38;;;22.10;85.30;;;;;;4964010;28;20030;-59
2021/07/13 03:53:02;;;;;;;6.22;2.10;;;22.10;85.20;;;;;;4982109;28;20030;-59
2021/07/13 03:55:27;;;;;;;4.72;1.95;;;22.10;85.10;;;;;;4981636;28;20117;-59
2021/07/13 03:57:54;;;;;;;5.25;2.75;;;22.00;85.20;;;;;;4978501;28;20426;-60
2021/07/13 04:00:21;;;;;;;3.80;2.22;;;22.00;85.40;;;;;;4982334;28;20032;-60
2021/07/13 04:02:46;;;;;;;7.47;2.13;;;22.00;85.50;;;;;;4982697;28;20027;-59
2021/07/13 04:05:13;;;;;;;3.90;1.90;;;21.90;85.50;;;;;;4980765;28;20360;-59
2021/07/13 04:07:39;;;;;;;3.35;2.15;;;21.90;85.50;;;;;;4982054;28;20044;-60
2021/07/13 04:10:06;;;;;;;5.43;2.20;;;21.90;85.60;;;;;;4981252;28;20030;-60
2021/07/13 04:12:32;;;;;;;7.88;2.10;;;21.90;85.60;;;;;;4982195;28;20023;-60
2021/07/13 04:14:57;;;;;;;4.25;1.90;;;21.80;85.40;;;;;;4981724;28;20447;-60
2021/07/13 04:17:23;;;;;;;4.70;2.22;;;21.80;85.40;;;;;;4980137;28;20961;-60
2021/07/13 04:19:48;;;;;;;4.50;1.98;;;21.80;85.30;;;;;;4997690;28;20109;-60
2021/07/13 04:22:14;;;;;;;6.38;2.60;;;21.80;85.40;;;;;;4982436;28;20034;-59
2021/07/13 04:24:39;;;;;;;5.35;2.28;;;21.80;85.40;;;;;;4981458;28;20038;-60
2021/07/13 04:27:05;;;;;;;5.93;2.53;;;21.80;85.50;;;;;;4983425;28;20065;-60
2021/07/13 04:29:31;;;;;;;3.85;2.03;;;21.80;85.40;;;;;;4980224;28;20081;-59
2021/07/13 04:31:56;;;;;;;6.65;2.25;;;21.80;85.20;;;;;;4980861;28;20041;-60
2021/07/13 04:34:22;;;;;;;3.00;1.88;;;21.80;85.20;;;;;;4977915;28;20330;-58
2021/07/13 04:36:47;;;;;;;4.47;2.08;;;21.80;85.20;;;;;;4980700;28;20490;-60
2021/07/13 04:39:13;;;;;;;6.28;1.90;;;21.90;85.00;;;;;;4979148;28;20479;-59
2021/07/13 04:41:38;;;;;;;3.50;1.88;;;21.70;85.00;;;;;;4982917;28;20054;-60
2021/07/13 04:44:04;;;;;;;6.03;1.73;;;21.70;84.90;;;;;;4980100;28;20057;-59
2021/07/13 04:46:30;;;;;;;3.78;1.60;;;21.70;85.00;;;;;;4966805;28;20501;-60
2021/07/13 04:48:55;;;;;;;6.20;1.85;;;21.60;85.00;;;;;;4980028;28;20050;-59
2021/07/13 04:51:22;;;;;;;4.40;1.67;;;21.60;84.90;;;;;;4982407;28;20113;-59
2021/07/13 04:53:47;;;;;;;4.90;2.25;;;21.60;85.10;;;;;;4981138;28;21105;-59
2021/07/13 04:56:13;;;;;;;2.45;1.35;;;21.60;84.70;;;;;;4979713;28;20165;-59
2021/07/13 04:58:38;;;;;;;6.60;1.67;;;21.50;84.60;;;;;;4982212;28;20387;-59
2021/07/13 05:01:04;;;;;;;1.95;1.38;;;21.50;84.60;;;;;;4982774;28;20577;-59
2021/07/13 05:03:29;;;;;;;5.53;1.20;;;21.50;84.40;;;;;;4982060;28;20742;-59
2021/07/13 05:05:55;;;;;;;4.05;1.70;;;21.50;84.40;;;;;;4982228;28;20117;-59
2021/07/13 05:08:22;;;;;;;3.25;1.63;;;21.40;84.20;;;;;;4979753;28;20045;-59
2021/07/13 05:10:48;;;;;;;2.08;1.15;;;21.40;84.10;;;;;;4975611;28;20046;-60
2021/07/13 05:13:14;;;;;;;2.33;1.38;;;21.40;84.30;;;;;;4981063;28;20442;-59
2021/07/13 05:15:39;;;;;;;2.88;1.30;;;21.40;84.00;;;;;;4981600;28;20042;-59
2021/07/13 05:18:11;;;;;;;3.38;1.15;;;21.30;83.60;;;;;;4980829;28;20038;-59
2021/07/13 05:20:37;;;;;;;2.17;1.10;;;21.30;83.40;;;;;;4978948;28;20392;-59
2021/07/13 05:23:06;;;;;;;4.35;3.65;;;21.30;83.60;;;;;;4980249;28;20034;-60
2021/07/13 05:25:33;;;;;;;2.10;1.70;;;21.30;83.50;;;;;;4976939;28;20058;-59
2021/07/13 05:27:58;;;;;;;2.15;1.35;;;21.20;83.10;;;;;;4980389;28;20054;-60
2021/07/13 05:30:24;;;;;;;2.25;1.73;;;21.20;83.20;;;;;;4979650;28;20027;-60
2021/07/13 05:32:51;;;;;;;2.97;1.17;;;21.10;83.30;;;;;;4980743;28;20096;-60
2021/07/13 05:35:17;;;;;;;1.55;1.00;;;21.10;83.10;;;;;;4979799;28;20034;-59
2021/07/13 05:37:43;;;;;;;2.78;1.10;;;21.10;83.10;;;;;;4980504;28;20046;-59
2021/07/13 05:40:09;;;;;;;1.45;1.10;;;21.10;82.80;;;;;;4983429;28;20052;-59
2021/07/13 05:42:35;;;;;;;2.60;1.02;;;21.10;82.80;;;;;;4984191;28;20030;-59
2021/07/13 05:45:01;;;;;;;1.90;1.00;;;21.00;82.70;;;;;;4968281;28;20041;-59
2021/07/13 05:47:26;;;;;;;4.55;0.80;;;21.00;82.50;;;;;;4982666;28;20397;-59
2021/07/13 05:49:54;;;;;;;2.35;1.17;;;21.00;82.60;;;;;;4979304;28;20042;-59
2021/07/13 05:52:19;;;;;;;1.67;0.80;;;21.00;82.60;;;;;;4983890;28;20126;-59
2021/07/13 05:54:45;;;;;;;5.18;0.88;;;21.00;82.60;;;;;;4978700;28;20092;-60
2021/07/13 05:57:10;;;;;;;1.00;0.85;;;20.90;82.40;;;;;;4981190;28;20111;-59
2021/07/13 05:59:36;;;;;;;1.80;0.80;;;20.90;82.40;;;;;;4983621;28;20533;-59
2021/07/13 06:02:02;;;;;;;1.60;0.80;;;20.90;82.50;;;;;;4961924;28;20046;-59
2021/07/13 06:04:27;;;;;;;2.28;0.80;;;20.90;82.40;;;;;;4980355;28;20042;-58
2021/07/13 06:06:53;;;;;;;2.72;0.77;;;20.90;82.40;;;;;;4982240;28;20042;-59
2021/07/13 06:09:19;;;;;;;2.05;1.02;;;20.90;82.60;;;;;;4981616;28;20038;-59
2021/07/13 06:11:44;;;;;;;1.00;0.75;;;20.80;82.50;;;;;;4985810;28;20026;-59
2021/07/13 06:14:10;;;;;;;1.58;1.15;;;20.80;82.30;;;;;;4983443;28;20501;-59
2021/07/13 06:16:35;;;;;;;1.13;0.70;;;20.80;82.20;;;;;;4977203;28;20049;-59
2021/07/13 06:19:01;;;;;;;1.55;0.85;;;20.80;82.20;;;;;;4979101;28;20798;-59
2021/07/13 06:21:26;;;;;;;2.30;1.17;;;20.80;82.20;;;;;;4974818;28;20169;-59
2021/07/13 06:23:52;;;;;;;4.05;0.50;;;20.80;82.20;;;;;;4978205;28;20421;-59
2021/07/13 06:26:17;;;;;;;0.82;0.70;;;20.70;82.00;;;;;;4980757;28;20176;-59
2021/07/13 06:28:43;;;;;;;1.75;0.85;;;20.70;82.10;;;;;;4981803;28;20054;-59
2021/07/13 06:31:08;;;;;;;2.33;0.77;;;20.70;82.00;;;;;;4997631;28;20454;-58
2021/07/13 06:33:34;;;;;;;1.60;0.77;;;20.70;82.00;;;;;;4995101;28;20481;-59
2021/07/13 06:36:00;;;;;;;8.65;1.60;;;20.70;81.80;;;;;;4978816;28;20050;-60
2021/07/13 06:38:25;;;;;;;3.42;1.00;;;20.70;81.80;;;;;;4979780;28;20137;-60
2021/07/13 06:40:51;;;;;;;10.10;1.23;;;20.70;81.90;;;;;;4982249;28;20129;-59
2021/07/13 06:43:16;;;;;;;7.90;1.50;;;20.70;82.20;;;;;;4997333;28;20046;-59
2021/07/13 06:45:42;;;;;;;8.38;1.27;;;20.70;82.20;;;;;;4982956;28;20038;-59
2021/07/13 06:48:07;;;;;;;12.32;1.75;;;20.70;82.20;;;;;;4974119;28;20088;-60
2021/07/13 06:50:33;;;;;;;12.65;1.42;;;20.60;82.30;;;;;;4970633;28;20046;-59
2021/07/13 06:52:58;;;;;;;13.90;1.88;;;20.60;82.30;;;;;;4975366;28;20486;-59
2021/07/13 06:55:24;;;;;;;24.98;3.15;;;20.60;82.40;;;;;;4957081;28;20034;-59
2021/07/13 06:57:49;;;;;;;12.90;2.42;;;20.60;82.50;;;;;;4978548;28;20089;-60
2021/07/13 07:00:15;;;;;;;28.35;2.97;;;20.60;82.70;;;;;;4982969;28;20113;-59
2021/07/13 07:02:41;;;;;;;17.20;1.92;;;20.60;82.70;;;;;;4982112;28;20071;-59
2021/07/13 07:05:07;;;;;;;15.70;1.90;;;20.60;83.20;;;;;;4975332;28;20050;-59
2021/07/13 07:07:33;;;;;;;24.23;1.83;;;20.60;82.40;;;;;;4973428;28;20204;-59
2021/07/13 07:09:58;;;;;;;5.00;1.50;;;20.50;82.40;;;;;;4981756;28;20513;-58
2021/07/13 07:12:24;;;;;;;10.35;1.73;;;20.40;82.30;;;;;;4978507;28;20460;-60
2021/07/13 07:14:49;;;;;;;14.82;2.10;;;20.40;82.70;;;;;;4980147;28;20031;-60
2021/07/13 07:17:15;;;;;;;19.40;2.67;;;20.30;82.80;;;;;;4974700;28;20030;-59
2021/07/13 07:19:40;;;;;;;21.40;3.00;;;20.30;83.10;;;;;;4996042;28;20026;-59
2021/07/13 07:22:06;;;;;;;12.93;2.33;;;20.30;83.20;;;;;;4982429;28;20046;-59
2021/07/13 07:24:31;;;;;;;15.13;2.60;;;20.30;83.30;;;;;;4981768;28;20019;-59
2021/07/13 07:26:57;;;;;;;21.35;3.00;;;20.30;83.70;;;;;;4975116;28;20049;-58
2021/07/13 07:29:22;;;;;;;16.02;2.50;;;20.30;83.80;;;;;;4958737;28;20091;-59
2021/07/13 07:31:50;;;;;;;19.73;2.17;;;20.20;83.70;;;;;;4975606;28;20073;-59
2021/07/13 07:34:16;;;;;;;133.18;10.38;;;20.20;83.70;;;;;;4972160;28;20114;-60
2021/07/13 07:36:42;;;;;;;90.10;8.60;;;20.20;84.10;;;;;;4970892;28;20105;-59
2021/07/13 07:39:08;;;;;;;66.53;8.30;;;20.20;84.30;;;;;;4980513;28;20032;-60
2021/07/13 07:41:34;;;;;;;25.35;5.10;;;20.20;84.40;;;;;;4976590;28;20108;-59
2021/07/13 07:44:00;;;;;;;83.28;8.35;;;20.20;85.50;;;;;;4973359;28;20470;-60
2021/07/13 07:46:25;;;;;;;31.02;4.90;;;20.20;84.60;;;;;;4978637;28;20157;-59
2021/07/13 07:48:51;;;;;;;42.22;6.10;;;20.10;84.60;;;;;;4979534;28;20149;-59
2021/07/13 07:51:18;;;;;;;35.53;5.55;;;20.10;84.70;;;;;;4979597;28;20066;-60
2021/07/13 07:53:44;;;;;;;42.42;5.80;;;20.10;84.80;;;;;;4992521;28;20078;-59
2021/07/13 07:56:10;;;;;;;85.65;7.72;;;20.10;85.00;;;;;;4977996;28;20112;-59
2021/07/13 07:58:35;;;;;;;48.50;6.78;;;20.10;85.20;;;;;;4976606;28;21050;-59
2021/07/13 08:01:01;;;;;;;66.60;7.82;;;20.00;85.50;;;;;;4979396;28;20163;-59
2021/07/13 08:03:26;;;;;;;43.28;6.22;;;20.00;85.60;;;;;;4978324;28;20232;-58
2021/07/13 08:05:55;;;;;;;73.10;8.48;;;20.00;86.00;;;;;;4973595;28;20049;-60
2021/07/13 08:08:21;;;;;;;58.38;7.53;;;20.00;86.20;;;;;;4978557;28;20117;-59
2021/07/13 08:10:47;;;;;;;75.53;8.00;;;20.00;86.00;;;;;;4974677;28;20165;-59
2021/07/13 08:13:12;;;;;;;66.15;7.97;;;20.00;86.20;;;;;;4978176;28;20630;-59
2021/07/13 08:15:38;;;;;;;76.32;8.40;;;19.90;86.30;;;;;;4959984;28;20054;-59
2021/07/13 08:18:03;;;;;;;62.38;7.25;;;19.90;86.20;;;;;;4977604;28;20050;-59
2021/07/13 08:20:29;;;;;;;77.28;7.38;;;19.90;86.50;;;;;;4980153;28;20034;-58
2021/07/13 08:22:54;;;;;;;71.57;8.20;;;19.90;86.40;;;;;;4980736;28;20050;-58
2021/07/13 08:25:20;;;;;;;63.92;8.10;;;19.90;86.60;;;;;;4973091;28;20042;-59
2021/07/13 08:27:46;;;;;;;60.35;8.30;;;19.80;86.50;;;;;;4979021;28;20034;-59
2021/07/13 08:30:12;;;;;;;55.58;8.23;;;19.90;86.50;;;;;;4978947;28;20034;-59
2021/07/13 08:32:38;;;;;;;64.88;6.90;;;19.80;86.80;;;;;;4981340;28;20034;-59
2021/07/13 08:35:04;;;;;;;71.20;7.90;;;19.80;86.70;;;;;;4975753;28;20049;-60
2021/07/13 08:37:32;;;;;;;62.40;9.10;;;19.80;86.80;;;;;;4978874;28;20090;-58
2021/07/13 08:39:59;;;;;;;62.78;7.63;;;19.70;86.70;;;;;;4961550;28;20060;-59
2021/07/13 08:42:25;;;;;;;57.38;7.50;;;19.70;86.80;;;;;;4977189;28;20161;-59
2021/07/13 08:44:50;;;;;;;71.88;7.15;;;19.70;86.50;;;;;;4958530;28;20129;-58
2021/07/13 08:47:16;;;;;;;46.05;7.45;;;19.80;86.70;;;;;;4967419;28;20046;-58
2021/07/13 08:49:45;;;;;;;59.97;6.70;;;19.70;86.50;;;;;;4973019;28;20026;-59
2021/07/13 08:52:11;;;;;;;48.50;6.70;;;19.70;86.60;;;;;;4976953;28;20087;-59
2021/07/13 08:54:37;;;;;;;71.30;7.60;;;19.70;86.80;;;;;;4973241;28;20058;-59
2021/07/13 08:57:03;;;;;;;66.65;7.35;;;19.70;86.90;;;;;;4973357;28;20547;-58
2021/07/13 08:59:28;;;;;;;68.43;7.65;;;19.80;87.10;;;;;;4974483;28;20046;-59
2021/07/13 09:01:54;;;;;;;84.50;9.85;;;19.70;87.10;;;;;;4979398;28;20382;-59
2021/07/13 09:04:19;;;;;;;75.55;9.40;;;19.80;87.00;;;;;;4975761;28;20568;-59
2021/07/13 09:07:07;;;;;;;65.82;8.30;;;19.80;87.00;;;;;;4976811;28;20050;-59
2021/07/13 09:09:39;;;;;;;78.55;8.45;;;19.80;86.80;;;;;;4960830;28;20128;-59
2021/07/13 09:12:18;;;;;;;73.32;8.73;;;19.80;86.90;;;;;;4977699;28;20037;-60
2021/07/13 09:15:04;;;;;;;68.68;8.20;;;19.80;87.00;;;;;;4981226;28;20056;-59
2021/07/13 09:17:38;;;;;;;62.15;7.80;;;19.80;87.00;;;;;;4981797;28;20053;-58
2021/07/13 09:20:11;;;;;;;95.63;9.60;;;19.80;87.00;;;;;;4980195;28;20080;-60
2021/07/13 09:22:58;;;;;;;86.15;9.90;;;19.80;87.00;;;;;;4992094;28;20038;-59
2021/07/13 09:25:36;;;;;;;81.85;9.48;;;19.80;86.90;;;;;;4979744;28;20047;-58
2021/07/13 09:28:13;;;;;;;79.07;8.68;;;19.80;87.00;;;;;;4982397;28;20030;-59
2021/07/13 09:30:40;;;;;;;84.65;9.25;;;19.80;86.80;;;;;;4964821;28;20065;-59
2021/07/13 09:33:28;;;;;;;110.47;11.75;;;19.80;86.60;;;;;;4977062;28;20073;-60
2021/07/13 09:36:11;;;;;;;184.05;17.42;;;19.80;86.70;;;;;;4982497;28;20045;-59
2021/07/13 09:38:45;;;;;;;77.85;8.68;;;19.80;86.70;;;;;;4981852;28;20110;-58
2021/07/13 09:41:22;;;;;;;119.23;11.87;;;19.70;86.60;;;;;;4982192;28;20057;-59
2021/07/13 09:43:52;;;;;;;99.53;10.25;;;19.80;86.60;;;;;;4976279;28;20042;-59
2021/07/13 09:46:22;;;;;;;79.78;9.25;;;19.70;86.70;;;;;;4980260;28;20137;-59
2021/07/13 09:49:12;;;;;;;87.97;9.25;;;19.70;86.70;;;;;;4978960;28;20030;-59
2021/07/13 09:51:38;;;;;;;87.28;8.98;;;19.70;86.70;;;;;;4989203;28;20035;-58
2021/07/13 09:54:04;;;;;;;63.45;9.30;;;19.70;86.60;;;;;;4962462;28;20149;-59
2021/07/13 09:56:44;;;;;;;79.35;9.30;;;19.70;86.70;;;;;;4980514;28;20137;-59
2021/07/13 09:59:10;;;;;;;75.10;8.50;;;19.70;86.70;;;;;;4965299;28;20363;-59
2021/07/13 10:01:35;;;;;;;87.85;8.15;;;19.70;86.80;;;;;;4981882;28;20086;-59
2021/07/13 10:04:01;;;;;;;67.55;7.72;;;19.70;86.70;;;;;;4976556;28;20121;-59
2021/07/13 10:06:31;;;;;;;57.10;6.90;;;19.60;86.60;;;;;;4980942;28;20169;-59
2021/07/13 10:09:00;;;;;;;78.43;7.75;;;19.70;86.50;;;;;;4980262;28;20129;-59
2021/07/13 10:11:28;;;;;;;74.35;7.57;;;19.70;87.00;;;;;;4980629;28;20037;-59
2021/07/13 10:13:58;;;;;;;130.98;12.88;;;19.70;86.40;;;;;;4975634;28;20046;-59
2021/07/13 10:16:23;;;;;;;78.70;7.60;;;19.70;86.20;;;;;;4980900;28;20077;-59
2021/07/13 10:18:49;;;;;;;71.63;7.13;;;19.70;86.10;;;;;;4980352;28;20217;-59
2021/07/13 10:21:15;;;;;;;61.90;7.25;;;19.80;86.20;;;;;;4979285;28;20386;-59
2021/07/13 10:23:43;;;;;;;50.75;5.68;;;19.70;86.10;;;;;;4974203;28;20469;-59
2021/07/13 10:26:11;;;;;;;43.67;6.45;;;19.70;86.30;;;;;;4979006;28;20073;-59
2021/07/13 10:28:36;;;;;;;54.85;6.00;;;19.70;86.20;;;;;;4964947;28;20034;-59
2021/07/13 10:31:02;;;;;;;81.93;9.10;;;19.70;86.20;;;;;;4980452;28;20049;-59
2021/07/13 10:33:29;;;;;;;56.97;6.65;;;19.70;86.30;;;;;;4980433;28;20030;-60
2021/07/13 10:35:56;;;;;;;72.13;7.15;;;19.70;86.30;;;;;;4978675;28;20019;-59
2021/07/13 10:38:24;;;;;;;58.70;6.60;;;19.70;86.40;;;;;;4964843;28;20602;-59
2021/07/13 10:40:51;;;;;;;47.63;6.00;;;19.70;86.80;;;;;;4966795;28;20379;-59
2021/07/13 10:43:23;;;;;;;39.10;4.78;;;19.70;86.60;;;;;;4979565;28;20109;-59
2021/07/13 10:46:07;;;;;;;35.30;5.88;;;19.70;86.20;;;;;;4968150;28;20053;-59
2021/07/13 10:48:33;;;;;;;36.25;5.00;;;19.70;86.20;;;;;;4977072;28;20038;-58
2021/07/13 10:51:09;;;;;;;37.47;5.20;;;19.70;86.50;;;;;;4975344;28;20053;-58
2021/07/13 10:53:42;;;;;;;45.75;5.22;;;19.70;86.40;;;;;;4961684;28;20049;-59
2021/07/13 10:56:28;;;;;;;49.47;5.07;;;19.60;86.30;;;;;;4963805;28;20026;-59
2021/07/13 10:58:54;;;;;;;103.93;9.50;;;19.60;86.40;;;;;;4976091;28;20481;-58
2021/07/13 11:01:27;;;;;;;61.78;6.53;;;19.60;86.30;;;;;;4978427;28;20129;-59
2021/07/13 11:03:57;;;;;;;39.72;5.15;;;19.60;86.60;;;;;;4978470;28;20027;-59
2021/07/13 11:06:38;;;;;;;43.50;5.88;;;19.60;87.00;;;;;;4979399;28;20077;-59
2021/07/13 11:09:31;;;;;;;61.42;5.90;;;19.60;87.00;;;;;;4973582;28;20117;-59
2021/07/13 11:12:04;;;;;;;41.28;4.93;;;19.60;87.00;;;;;;4977420;28;20046;-59
2021/07/13 11:14:30;;;;;;;50.95;6.47;;;19.60;86.50;;;;;;4977781;28;20540;-59
2021/07/13 11:16:55;;;;;;;41.90;4.80;;;19.50;86.50;;;;;;4974690;28;20038;-61
2021/07/13 11:19:21;;;;;;;35.55;5.45;;;19.50;86.40;;;;;;4978087;28;20038;-59
2021/07/13 11:21:48;;;;;;;31.88;4.97;;;19.50;86.30;;;;;;4977527;28;20075;-59
2021/07/13 11:24:18;;;;;;;39.47;4.20;;;19.50;86.10;;;;;;4979247;28;20061;-59
2021/07/13 11:26:45;;;;;;;46.55;4.70;;;19.50;86.10;;;;;;4959494;28;20030;-59
2021/07/13 11:29:18;;;;;;;46.42;4.55;;;19.50;86.10;;;;;;4974842;28;20050;-59
2021/07/13 11:31:46;;;;;;;38.53;4.13;;;19.40;85.90;;;;;;4961675;28;20048;-59
2021/07/13 11:34:14;;;;;;;32.08;4.55;;;19.40;85.90;;;;;;4978764;28;20041;-59
2021/07/13 11:36:45;;;;;;;47.28;5.03;;;19.40;86.10;;;;;;4975633;28;20209;-58
2021/07/13 11:39:13;;;;;;;39.72;4.50;;;19.40;86.60;;;;;;4955732;28;20128;-59
2021/07/13 11:41:40;;;;;;;44.05;5.40;;;19.40;85.90;;;;;;4977879;28;20145;-58
2021/07/13 11:44:07;;;;;;;45.90;5.18;;;19.40;86.00;;;;;;4980270;28;20687;-59
2021/07/13 11:46:44;;;;;;;43.80;4.90;;;19.30;85.90;;;;;;4975180;28;20050;-58
2021/07/13 11:49:12;;;;;;;24.95;3.97;;;19.30;85.90;;;;;;4981290;28;20434;-59
2021/07/13 11:51:38;;;;;;;29.05;4.22;;;19.30;85.90;;;;;;4979523;28;20041;-58
2021/07/13 11:54:11;;;;;;;29.75;4.32;;;19.30;85.90;;;;;;4979009;28;20038;-58
2021/07/13 11:56:49;;;;;;;30.35;3.88;;;19.30;86.10;;;;;;4973189;28;20210;-59
2021/07/13 11:59:15;;;;;;;40.30;4.55;;;19.30;86.00;;;;;;4965951;28;20030;-59
2021/07/13 12:01:40;;;;;;;43.17;4.53;;;19.30;86.10;;;;;;4980706;28;20109;-58
2021/07/13 12:04:07;;;;;;;63.28;7.03;;;19.30;86.20;;;;;;4977892;28;20029;-58
2021/07/13 12:06:33;;;;;;;35.00;5.90;;;19.30;86.30;;;;;;4969961;28;20318;-59
2021/07/13 12:09:21;;;;;;;47.10;6.32;;;19.30;86.30;;;;;;4979200;28;20026;-59
2021/07/13 12:11:47;;;;;;;42.45;6.70;;;19.30;86.80;;;;;;4965316;28;20045;-59
2021/07/13 12:14:14;;;;;;;43.83;6.38;;;19.20;86.30;;;;;;4980305;28;20487;-59
2021/07/13 12:16:39;;;;;;;50.67;6.63;;;19.30;86.40;;;;;;4973510;28;20411;-60
2021/07/13 12:19:10;;;;;;;38.83;6.32;;;19.30;86.60;;;;;;4973342;28;20042;-60
2021/07/13 12:21:44;;;;;;;72.13;8.82;;;19.20;86.70;;;;;;4962568;28;20034;-59
2021/07/13 12:24:13;;;;;;;43.20;6.65;;;19.30;87.40;;;;;;4973161;28;20050;-59
2021/07/13 12:26:39;;;;;;;54.58;7.90;;;19.20;86.60;;;;;;4974417;28;20223;-58
2021/07/13 12:29:08;;;;;;;79.00;8.90;;;19.20;86.70;;;;;;4976592;28;20046;-59
2021/07/13 12:31:38;;;;;;;61.15;7.88;;;19.20;86.70;;;;;;4973113;28;20041;-59
2021/07/13 12:34:27;;;;;;;67.55;7.57;;;19.20;86.60;;;;;;4976585;28;20487;-58
2021/07/13 12:37:11;;;;;;;58.95;6.40;;;19.20;86.60;;;;;;4974888;28;20046;-59
2021/07/13 12:39:39;;;;;;;98.22;9.38;;;19.20;86.60;;;;;;4977405;28;20125;-59
2021/07/13 12:42:20;;;;;;;66.55;8.65;;;19.20;86.40;;;;;;4971945;28;20113;-58